createdAt,value
2019-02-12T00:02:39.156Z,68.20
2019-02-12T00:05:36.719Z,68.10
2019-02-12T00:08:36.395Z,68.10
2019-02-12T00:11:28.196Z,68.00
2019-02-12T00:14:28.155Z,68.00
2019-02-12T00:17:19.902Z,68.10
2019-02-12T00:20:37.383Z,68.10
2019-02-12T00:23:29.538Z,68.10
2019-02-12T00:26:22.675Z,68.30
2019-02-12T00:29:15.951Z,68.30
2019-02-12T01:35:22.519Z,68.00
2019-02-12T01:44:26.224Z,67.80
2019-02-12T01:47:25.038Z,68.60
2019-02-12T01:50:18.849Z,68.50
2019-02-12T01:53:16.761Z,68.50
2019-02-12T01:56:10.123Z,68.60
2019-02-12T01:59:02.149Z,68.50
2019-02-12T02:02:00.164Z,68.50
2019-02-12T02:04:51.734Z,68.60
2019-02-12T02:07:43.202Z,68.40
2019-02-12T02:10:42.543Z,68.40
2019-02-12T02:14:00.238Z,68.50
2019-02-12T02:16:54.903Z,68.60
2019-02-12T02:20:17.347Z,68.70
2019-02-12T02:23:10.246Z,68.60
2019-02-12T02:26:03.109Z,68.80
2019-02-12T02:28:56.204Z,68.90
2019-02-12T02:31:47.994Z,69.00
2019-02-12T02:34:40.936Z,69.00
2019-02-12T02:37:36.818Z,69.30
2019-02-12T02:40:32.189Z,68.90
2019-02-12T02:43:24.583Z,68.80
2019-02-12T02:46:23.047Z,68.90
2019-02-12T02:49:34.554Z,69.00
2019-02-12T02:52:26.646Z,69.20
2019-02-12T02:55:20.258Z,69.20
2019-02-12T02:58:32.408Z,69.50
2019-02-12T03:01:25.619Z,69.80
2019-02-12T03:04:29.347Z,69.80
2019-02-12T03:07:34.555Z,70.10
2019-02-12T03:10:47.252Z,70.20
2019-02-12T03:13:51.189Z,70.30
2019-02-12T03:16:48.958Z,70.50
2019-02-12T03:20:18.010Z,70.50
2019-02-12T03:33:57.344Z,70.50
2019-02-12T03:40:26.062Z,70.30
2019-02-12T03:43:18.209Z,70.60
2019-02-12T03:46:09.580Z,71.50
2019-02-12T03:49:06.187Z,71.20
2019-02-12T03:51:58.327Z,71.60
2019-02-12T03:54:50.580Z,71.70
2019-02-12T03:57:42.975Z,71.50
2019-02-12T04:00:35.409Z,71.30
2019-02-12T04:03:27.245Z,71.10
2019-02-12T04:06:32.578Z,70.90
2019-02-12T04:09:26.378Z,71.10
2019-02-12T04:12:18.269Z,71.10
2019-02-12T04:15:10.944Z,71.30
2019-02-12T04:18:02.352Z,71.40
2019-02-12T04:20:53.521Z,71.30
2019-02-12T04:23:46.814Z,71.10
2019-02-12T04:26:37.795Z,71.40
2019-02-12T04:29:30.057Z,71.50
2019-02-12T04:32:22.025Z,71.40
2019-02-12T04:35:15.096Z,71.50
2019-02-12T05:17:41.175Z,71.10
2019-02-12T05:20:37.125Z,72.00
2019-02-12T05:23:34.840Z,72.30
2019-02-12T05:26:35.193Z,72.60
2019-02-12T05:29:42.985Z,72.10
2019-02-12T05:32:47.781Z,71.80
2019-02-12T05:35:56.185Z,72.00
2019-02-12T05:39:00.462Z,71.40
2019-02-12T05:42:07.518Z,71.30
2019-02-12T05:45:09.475Z,70.80
2019-02-12T05:48:30.303Z,70.00
2019-02-12T05:51:50.098Z,68.70
2019-02-12T05:55:15.213Z,68.10
2019-02-12T05:58:30.568Z,67.70
2019-02-12T06:01:46.605Z,67.40
2019-02-12T06:08:12.027Z,66.20
2019-02-12T06:11:15.403Z,66.20
2019-02-12T06:14:15.357Z,66.40
2019-02-12T06:17:20.529Z,66.20
2019-02-12T06:20:17.640Z,65.70
2019-02-12T06:23:15.468Z,65.60
2019-02-12T06:26:12.720Z,65.50
2019-02-12T06:29:13.052Z,64.70
2019-02-12T06:32:12.073Z,64.80
2019-02-12T06:35:13.912Z,64.90
2019-02-12T06:38:10.459Z,65.40
2019-02-12T06:41:11.605Z,67.90
2019-02-12T06:44:09.623Z,69.20
2019-02-12T06:47:05.039Z,68.30
2019-02-12T06:50:11.438Z,66.40
2019-02-12T06:53:24.401Z,65.60
2019-02-12T06:56:28.877Z,64.30
2019-02-12T06:59:25.270Z,63.10
2019-02-12T07:02:47.112Z,62.70
2019-02-12T07:05:56.713Z,63.20
2019-02-12T07:09:21.746Z,62.70
2019-02-12T07:12:55.274Z,62.60
2019-02-12T07:15:57.785Z,62.00
2019-02-12T07:19:02.754Z,61.20
2019-02-12T07:22:08.373Z,61.80
2019-02-12T07:25:21.807Z,61.50
2019-02-12T07:28:44.107Z,61.30
2019-02-12T07:31:55.608Z,61.00
2019-02-12T07:35:02.052Z,60.90
2019-02-12T07:38:09.223Z,61.10
2019-02-12T07:41:19.964Z,61.10
2019-02-12T07:44:17.064Z,60.90
2019-02-12T07:47:15.587Z,61.10
2019-02-12T07:50:32.506Z,60.60
2019-02-12T07:53:31.571Z,60.30
2019-02-12T07:56:48.550Z,60.00
2019-02-12T08:00:00.321Z,59.90
2019-02-12T08:03:31.684Z,59.80
2019-02-12T08:06:37.342Z,59.70
2019-02-12T08:10:31.255Z,59.80
2019-02-12T08:13:48.071Z,60.00
2019-02-12T08:17:17.044Z,60.00
2019-02-12T08:20:30.690Z,59.90
2019-02-12T08:23:27.218Z,59.00
2019-02-12T08:26:32.987Z,58.80
2019-02-12T08:29:42.840Z,58.80
2019-02-12T08:32:49.531Z,58.40
2019-02-12T08:36:03.558Z,57.60
2019-02-12T08:39:02.252Z,58.70
2019-02-12T08:42:22.172Z,58.90
2019-02-12T08:45:38.734Z,59.30
2019-02-12T08:48:35.089Z,59.50
2019-02-12T08:51:39.560Z,59.10
2019-02-12T08:54:54.970Z,59.30
2019-02-12T08:58:02.377Z,59.90
2019-02-12T09:01:25.046Z,60.00
2019-02-12T09:04:33.565Z,59.20
2019-02-12T09:07:50.361Z,60.80
2019-02-12T09:11:00.616Z,60.40
2019-02-12T09:14:01.510Z,60.30
2019-02-12T09:17:10.596Z,59.80
2019-02-12T09:20:33.137Z,59.80
2019-02-12T09:23:42.608Z,60.00
2019-02-12T09:26:39.714Z,57.60
2019-02-12T09:29:37.805Z,57.00
2019-02-12T09:33:01.218Z,57.20
2019-02-12T09:36:00.271Z,56.00
2019-02-12T09:39:06.911Z,55.90
2019-02-12T09:42:09.639Z,55.40
2019-02-12T09:45:18.590Z,55.50
2019-02-12T09:48:21.493Z,55.50
2019-02-12T09:51:18.596Z,55.00
2019-02-12T09:54:32.347Z,55.00
2019-02-12T09:57:47.661Z,54.70
2019-02-12T10:01:07.511Z,55.10
2019-02-12T10:04:20.858Z,54.40
2019-02-12T10:07:45.880Z,54.40
2019-02-12T10:11:06.584Z,54.90
2019-02-12T10:14:09.311Z,55.60
2019-02-12T10:17:25.516Z,55.30
2019-02-12T10:20:26.187Z,54.70
2019-02-12T10:23:48.999Z,54.80
2019-02-12T10:26:43.448Z,54.70
2019-02-12T10:29:59.614Z,55.50
2019-02-12T10:32:53.609Z,54.70
2019-02-12T10:35:47.692Z,55.10
2019-02-12T10:38:40.033Z,55.00
2019-02-12T10:41:35.187Z,55.50
2019-02-12T10:44:28.708Z,55.00
2019-02-12T10:47:23.885Z,55.30
2019-02-12T10:50:16.480Z,55.40
2019-02-12T10:53:11.339Z,55.80
2019-02-12T10:56:06.650Z,55.70
2019-02-12T10:59:03.426Z,55.50
2019-02-12T11:01:58.528Z,55.90
2019-02-12T11:04:56.534Z,55.70
2019-02-12T11:07:52.267Z,55.90
2019-02-12T11:10:46.880Z,55.70
2019-02-12T11:13:49.753Z,55.70
2019-02-12T11:16:47.452Z,55.60
2019-02-12T11:19:42.537Z,55.30
2019-02-12T11:22:37.562Z,55.50
2019-02-12T11:25:34.844Z,55.70
2019-02-12T11:28:29.970Z,55.90
2019-02-12T11:31:26.435Z,56.70
2019-02-12T11:34:28.801Z,56.70
2019-02-12T11:37:23.798Z,56.50
2019-02-12T11:40:18.662Z,55.90
2019-02-12T11:43:15.095Z,56.30
2019-02-12T11:46:09.958Z,56.10
2019-02-12T11:49:22.480Z,56.10
2019-02-12T11:52:21.242Z,56.40
2019-02-12T11:55:15.125Z,56.50
2019-02-12T11:58:07.628Z,56.70
2019-02-12T13:06:29.715Z,59.00
2019-02-12T13:09:26.538Z,59.70
2019-02-12T13:12:42.461Z,59.50
2019-02-12T13:15:53.858Z,59.80
2019-02-12T13:18:54.436Z,59.60
2019-02-12T13:21:46.227Z,59.50
2019-02-12T13:24:41.716Z,59.40
2019-02-12T13:27:33.032Z,59.50
2019-02-12T13:30:24.993Z,59.30
2019-02-12T13:33:18.752Z,59.40
2019-02-12T13:36:10.491Z,59.50
2019-02-12T13:39:05.518Z,59.60
2019-02-12T13:42:14.069Z,59.90
2019-02-12T13:45:24.219Z,60.00
2019-02-12T13:48:19.829Z,60.50
2019-02-12T13:51:24.136Z,60.50
2019-02-12T13:54:19.340Z,60.90
2019-02-12T13:57:12.112Z,61.20
2019-02-12T14:00:09.614Z,61.40
2019-02-12T14:03:07.265Z,61.70
2019-02-12T14:09:46.179Z,62.00
2019-02-12T14:12:40.348Z,62.30
2019-02-12T14:15:46.011Z,62.30
2019-02-12T14:18:52.551Z,62.70
2019-02-12T14:21:50.386Z,62.80
2019-02-12T14:24:45.871Z,62.90
2019-02-12T14:27:39.571Z,62.60
2019-02-12T14:30:34.276Z,62.70
2019-02-12T14:33:26.980Z,62.60
2019-02-12T14:36:18.208Z,62.70
2019-02-12T14:39:10.130Z,63.20
2019-02-12T14:42:02.212Z,63.50
2019-02-12T14:45:07.241Z,63.80
2019-02-12T14:48:04.353Z,64.10
2019-02-12T14:50:56.726Z,64.10
2019-02-12T14:53:49.736Z,64.60
2019-02-12T14:56:44.709Z,65.20
2019-02-12T14:59:53.036Z,65.20
2019-02-12T15:02:44.823Z,65.20
2019-02-12T15:05:36.412Z,65.30
2019-02-12T15:08:38.548Z,65.20
2019-02-12T15:11:37.652Z,64.70
2019-02-12T15:14:31.560Z,63.80
2019-02-12T15:17:24.103Z,63.60
2019-02-12T15:20:15.642Z,63.80
2019-02-12T15:23:07.834Z,64.00
2019-02-12T15:26:01.849Z,63.90
2019-02-12T15:28:53.325Z,63.50
2019-02-12T15:31:44.880Z,63.40
2019-02-12T15:34:37.490Z,63.40
2019-02-12T15:37:29.356Z,63.30
2019-02-12T15:40:22.106Z,63.30
2019-02-12T15:43:13.605Z,63.40
2019-02-12T15:46:07.418Z,63.40
2019-02-12T15:49:01.299Z,63.70
2019-02-12T15:51:54.975Z,63.60
2019-02-12T15:54:46.534Z,63.60
2019-02-12T15:57:40.577Z,63.70
2019-02-12T16:00:32.171Z,63.80
2019-02-12T16:03:25.989Z,63.80
2019-02-12T16:06:21.111Z,63.60
2019-02-12T16:09:15.594Z,63.60
2019-02-12T16:12:11.154Z,63.60
2019-02-12T16:15:09.008Z,63.20
2019-02-12T16:18:02.535Z,63.00
2019-02-12T16:20:55.661Z,62.80
2019-02-12T16:23:48.734Z,62.70
2019-02-12T16:27:09.350Z,62.50
2019-02-12T16:30:15.018Z,62.30
2019-02-12T16:33:14.094Z,62.20
2019-02-12T16:36:12.209Z,62.00
2019-02-12T16:39:06.038Z,62.30
2019-02-12T16:42:13.660Z,61.80
2019-02-12T16:45:06.523Z,61.90
2019-02-12T16:48:00.091Z,61.80
2019-02-12T16:50:52.474Z,61.80
2019-02-12T16:53:44.015Z,61.80
2019-02-12T16:56:54.509Z,62.00
2019-02-12T16:59:48.045Z,62.20
2019-02-12T17:02:41.006Z,62.50
2019-02-12T17:05:45.131Z,62.60
2019-02-12T17:08:37.399Z,62.80
2019-02-12T17:11:44.605Z,63.20
2019-02-12T17:14:42.689Z,63.00
2019-02-12T17:17:35.732Z,63.10
2019-02-12T17:20:28.499Z,63.00
2019-02-12T17:23:41.651Z,63.00
2019-02-12T17:26:33.158Z,62.90
2019-02-12T17:29:25.090Z,62.70
2019-02-12T17:32:21.942Z,62.70
2019-02-12T17:35:17.098Z,62.40
2019-02-12T17:38:11.800Z,62.30
2019-02-12T17:44:19.635Z,62.20
2019-02-12T17:47:13.916Z,62.20
2019-02-12T17:50:08.805Z,62.20
2019-02-12T17:53:04.851Z,62.10
2019-02-12T17:56:00.078Z,62.00
2019-02-12T17:58:56.609Z,61.70
2019-02-12T18:01:48.370Z,61.60
2019-02-12T18:05:20.621Z,61.30
2019-02-12T18:08:24.712Z,61.10
2019-02-12T18:11:25.878Z,60.90
2019-02-12T18:14:28.244Z,60.60
2019-02-12T18:17:26.942Z,60.50
2019-02-12T18:20:26.492Z,60.50
2019-02-12T18:23:19.524Z,60.30
2019-02-12T18:26:17.297Z,60.30
2019-02-12T18:29:15.671Z,60.20
2019-02-12T18:32:11.655Z,60.10
2019-02-12T18:35:11.970Z,60.00
2019-02-12T18:38:11.861Z,59.30
2019-02-12T18:41:08.535Z,60.00
2019-02-12T18:44:07.436Z,60.00
2019-02-12T18:47:08.673Z,59.90
2019-02-12T18:50:11.259Z,59.90
2019-02-12T18:53:08.942Z,59.80
2019-02-12T18:56:08.267Z,59.70
2019-02-12T18:59:03.315Z,59.70
2019-02-12T19:02:04.149Z,59.60
2019-02-12T19:04:58.250Z,59.50
2019-02-12T19:07:55.570Z,59.50
2019-02-12T19:10:48.778Z,59.60
2019-02-12T19:13:47.248Z,59.50
2019-02-12T19:16:38.714Z,59.40
2019-02-12T19:19:30.040Z,59.40
2019-02-12T19:22:27.270Z,59.30
2019-02-12T19:25:20.516Z,59.30
2019-02-12T19:28:12.471Z,59.30
2019-02-12T19:31:03.771Z,59.30
2019-02-12T19:33:56.525Z,59.40
2019-02-12T19:36:47.967Z,59.40
2019-02-12T19:39:40.644Z,59.40
2019-02-12T19:42:32.451Z,59.40
2019-02-12T19:45:23.606Z,59.40
2019-02-12T19:48:16.334Z,59.30
2019-02-12T19:51:08.178Z,59.30
2019-02-12T19:54:00.561Z,59.40
2019-02-12T19:56:58.156Z,59.50
2019-02-12T19:59:53.049Z,59.50
2019-02-12T20:02:49.555Z,59.60
2019-02-12T20:06:06.666Z,59.60
2019-02-12T20:09:24.072Z,59.50
2019-02-12T20:12:42.463Z,59.50
2019-02-12T20:15:49.964Z,59.30
2019-02-12T20:18:43.186Z,59.30
2019-02-12T20:21:36.477Z,59.10
2019-02-12T20:24:41.883Z,59.20
2019-02-12T20:27:36.146Z,59.10
2019-02-12T20:30:27.948Z,59.10
2019-02-12T20:33:38.228Z,59.20
2019-02-12T20:36:37.067Z,59.20
2019-02-12T20:39:35.275Z,59.30
2019-02-12T20:42:33.378Z,59.40
2019-02-12T20:45:26.428Z,59.20
2019-02-12T20:48:54.183Z,59.20
2019-02-12T20:51:46.606Z,59.20
2019-02-12T20:54:42.228Z,59.20
2019-02-12T20:57:33.739Z,59.40
2019-02-12T21:00:32.640Z,59.50
2019-02-12T21:03:25.333Z,59.50
2019-02-12T21:06:23.146Z,59.50
2019-02-12T21:09:28.450Z,59.60
2019-02-12T21:12:21.266Z,59.50
2019-02-12T21:15:14.183Z,59.50
2019-02-12T21:18:06.012Z,59.50
2019-02-12T21:21:06.760Z,59.50
2019-02-12T21:23:58.162Z,59.50
2019-02-12T21:27:00.741Z,59.50
2019-02-12T21:29:58.135Z,59.20
2019-02-12T21:32:57.752Z,59.50
2019-02-12T21:35:48.984Z,59.50
2019-02-12T21:38:54.415Z,59.40
2019-02-12T21:41:55.502Z,59.70
2019-02-12T21:44:53.292Z,59.30
2019-02-12T21:47:46.547Z,59.40
2019-02-12T21:50:39.503Z,59.50
2019-02-12T21:53:32.625Z,59.60
2019-02-12T21:57:00.061Z,60.20
2019-02-12T21:59:59.469Z,59.60
2019-02-12T22:02:53.909Z,59.70
2019-02-12T22:05:45.599Z,59.80
2019-02-12T22:08:37.638Z,59.70
2019-02-12T22:11:41.333Z,59.70
2019-02-12T22:14:34.658Z,59.70
2019-02-12T22:17:29.767Z,59.60
2019-02-12T22:20:28.907Z,59.80
2019-02-12T22:23:26.495Z,59.70
2019-02-12T22:26:18.203Z,59.80
2019-02-12T22:29:19.576Z,59.90
2019-02-12T22:32:18.951Z,60.00
2019-02-12T22:35:11.583Z,60.00
2019-02-12T22:38:04.648Z,59.90
2019-02-12T22:41:03.992Z,60.00
2019-02-12T22:44:23.006Z,59.90
2019-02-12T22:47:16.003Z,59.90
2019-02-12T22:50:08.188Z,59.90
2019-02-12T22:53:04.995Z,60.00
2019-02-12T22:55:56.511Z,60.00
2019-02-12T22:59:01.690Z,60.10
2019-02-12T23:01:54.834Z,60.20
2019-02-12T23:04:54.317Z,60.20
2019-02-12T23:07:54.526Z,60.20
2019-02-12T23:10:46.399Z,60.30
2019-02-12T23:13:38.363Z,60.40
2019-02-12T23:16:29.740Z,60.50
2019-02-12T23:19:40.253Z,60.70
2019-02-12T23:22:32.997Z,60.90
2019-02-12T23:25:41.489Z,61.70
2019-02-12T23:28:34.490Z,60.90
2019-02-12T23:31:27.800Z,60.90
2019-02-12T23:34:57.220Z,61.00
2019-02-12T23:37:54.921Z,61.10
2019-02-12T23:40:46.560Z,61.00
2019-02-12T23:43:40.216Z,60.90
2019-02-12T23:46:45.512Z,61.00
2019-02-12T23:49:53.678Z,61.00
2019-02-12T23:52:46.793Z,60.90
2019-02-12T23:55:40.050Z,60.90
2019-02-12T23:58:31.651Z,61.00
